createdAt,value
2018-01-23T00:01:15.996Z,29.70
2018-01-23T00:03:42.277Z,32.60
2018-01-23T00:06:08.559Z,33.65
2018-01-23T00:08:34.796Z,29.02
2018-01-23T00:11:01.032Z,35.63
2018-01-23T00:13:28.028Z,33.38
2018-01-23T00:15:54.279Z,30.62
2018-01-23T00:18:20.546Z,35.80
2018-01-23T00:20:47.020Z,33.55
2018-01-23T00:23:13.317Z,32.70
2018-01-23T00:25:39.632Z,33.15
2018-01-23T00:28:05.895Z,37.92
2018-01-23T00:30:32.169Z,36.25
2018-01-23T00:32:58.424Z,29.12
2018-01-23T00:35:24.710Z,30.12
2018-01-23T00:37:50.955Z,33.78
2018-01-23T00:40:17.197Z,31.77
2018-01-23T00:42:43.450Z,35.80
2018-01-23T00:45:09.717Z,33.97
2018-01-23T00:47:35.984Z,29.92
2018-01-23T00:50:02.277Z,37.92
2018-01-23T00:52:28.503Z,36.85
2018-01-23T00:54:54.784Z,38.55
2018-01-23T00:57:21.773Z,38.38
2018-01-23T00:59:54.831Z,34.40
2018-01-23T01:02:28.028Z,28.02
2018-01-23T01:04:54.286Z,32.35
2018-01-23T01:07:20.546Z,30.48
2018-01-23T01:09:46.786Z,36.38
2018-01-23T01:12:13.077Z,37.92
2018-01-23T01:14:39.310Z,38.97
2018-01-23T01:17:05.539Z,36.70
2018-01-23T01:19:31.797Z,33.42
2018-01-23T01:21:58.064Z,33.28
2018-01-23T01:24:24.324Z,37.25
2018-01-23T01:26:51.300Z,34.78
2018-01-23T01:29:17.557Z,34.20
2018-01-23T01:31:43.785Z,38.80
2018-01-23T01:34:10.011Z,34.15
2018-01-23T01:36:36.979Z,36.50
2018-01-23T01:39:03.277Z,39.20
2018-01-23T01:41:29.514Z,35.55
2018-01-23T01:43:55.751Z,33.15
2018-01-23T01:46:22.039Z,36.15
2018-01-23T01:48:52.148Z,32.72
2018-01-23T01:51:18.388Z,39.67
2018-01-23T01:53:44.632Z,44.13
2018-01-23T01:56:10.889Z,36.80
2018-01-23T01:58:37.132Z,33.55
2018-01-23T02:01:03.364Z,33.50
2018-01-23T02:03:29.645Z,30.08
2018-01-23T02:05:55.896Z,40.25
2018-01-23T02:08:28.949Z,33.20
2018-01-23T02:10:55.248Z,40.28
2018-01-23T02:13:21.476Z,31.98
2018-01-23T02:15:47.712Z,32.83
2018-01-23T02:18:13.962Z,37.15
2018-01-23T02:20:40.243Z,30.33
2018-01-23T02:23:07.276Z,34.80
2018-01-23T02:25:33.520Z,34.63
2018-01-23T02:27:59.759Z,30.92
2018-01-23T02:30:25.976Z,28.27
2018-01-23T02:32:52.228Z,32.17
2018-01-23T02:35:18.449Z,35.72
2018-01-23T02:37:44.711Z,32.45
2018-01-23T02:40:10.968Z,29.30
2018-01-23T02:42:37.241Z,37.17
2018-01-23T02:45:03.512Z,33.90
2018-01-23T02:47:29.726Z,36.13
2018-01-23T02:49:55.978Z,32.33
2018-01-23T02:52:22.217Z,37.58
2018-01-23T02:54:48.464Z,25.77
2018-01-23T02:57:14.707Z,31.73
2018-01-23T02:59:40.983Z,35.53
2018-01-23T03:02:07.212Z,36.10
2018-01-23T03:04:33.433Z,39.08
2018-01-23T03:06:59.685Z,37.08
2018-01-23T03:09:25.943Z,27.95
2018-01-23T03:11:52.233Z,33.17
2018-01-23T03:14:18.447Z,34.67
2018-01-23T03:16:44.705Z,31.60
2018-01-23T03:19:10.959Z,34.33
2018-01-23T03:21:37.291Z,36.28
2018-01-23T03:24:03.520Z,36.50
2018-01-23T03:26:30.525Z,32.38
2018-01-23T03:28:56.781Z,40.60
2018-01-23T03:31:23.018Z,46.53
2018-01-23T03:33:49.259Z,34.97
2018-01-23T03:36:15.496Z,39.28
2018-01-23T03:38:42.024Z,49.80
2018-01-23T03:41:08.308Z,32.22
2018-01-23T03:43:34.527Z,39.42
2018-01-23T03:46:00.779Z,38.80
2018-01-23T03:48:27.023Z,39.22
2018-01-23T03:50:53.288Z,34.60
2018-01-23T03:53:19.519Z,35.80
2018-01-23T03:55:46.775Z,33.58
2018-01-23T03:58:13.030Z,40.83
2018-01-23T04:00:39.283Z,32.13
2018-01-23T04:03:06.276Z,39.13
2018-01-23T04:05:32.520Z,38.80
2018-01-23T04:07:58.803Z,32.20
2018-01-23T04:10:25.053Z,37.70
2018-01-23T04:12:51.324Z,34.53
2018-01-23T04:15:17.588Z,37.53
2018-01-23T04:17:44.642Z,35.60
2018-01-23T04:20:10.883Z,34.83
2018-01-23T04:22:37.173Z,40.00
2018-01-23T04:25:03.420Z,39.70
2018-01-23T04:27:30.399Z,40.85
2018-01-23T04:29:56.653Z,27.30
2018-01-23T04:32:22.901Z,37.03
2018-01-23T04:34:49.161Z,36.72
2018-01-23T04:37:15.406Z,35.55
2018-01-23T04:39:41.647Z,36.13
2018-01-23T04:42:07.931Z,36.63
2018-01-23T04:44:34.148Z,36.92
2018-01-23T04:47:00.419Z,34.78
2018-01-23T04:49:26.653Z,36.53
2018-01-23T04:51:52.887Z,34.63
2018-01-23T04:54:19.131Z,32.75
2018-01-23T04:56:45.331Z,36.45
2018-01-23T04:59:11.605Z,46.10
2018-01-23T05:01:37.846Z,36.55
2018-01-23T05:04:05.453Z,27.55
2018-01-23T05:06:31.709Z,31.90
2018-01-23T05:08:57.959Z,31.83
2018-01-23T05:11:24.206Z,36.92
2018-01-23T05:13:50.471Z,32.67
2018-01-23T05:16:16.760Z,37.70
2018-01-23T05:18:43.025Z,38.92
2018-01-23T05:21:09.298Z,32.63
2018-01-23T05:23:36.307Z,27.50
2018-01-23T05:26:02.540Z,27.60
2018-01-23T05:28:28.804Z,29.23
2018-01-23T05:30:55.049Z,25.23
2018-01-23T05:33:21.288Z,29.15
2018-01-23T05:35:47.561Z,24.20
2018-01-23T05:38:14.556Z,21.92
2018-01-23T05:40:40.799Z,21.17
2018-01-23T05:43:07.015Z,16.55
2018-01-23T05:45:33.989Z,15.93
2018-01-23T05:48:00.236Z,21.48
2018-01-23T05:50:26.466Z,20.42
2018-01-23T05:52:52.752Z,22.40
2018-01-23T05:55:18.969Z,21.98
2018-01-23T05:57:45.880Z,17.05
2018-01-23T06:00:12.901Z,16.33
2018-01-23T06:02:39.119Z,24.80
2018-01-23T06:05:05.370Z,15.77
2018-01-23T06:07:31.588Z,22.83
2018-01-23T06:09:58.098Z,18.37
2018-01-23T06:12:24.339Z,25.48
2018-01-23T06:14:50.593Z,22.08
2018-01-23T06:17:17.612Z,30.10
2018-01-23T06:19:43.833Z,18.85
2018-01-23T06:22:10.139Z,15.27
2018-01-23T06:24:36.370Z,15.30
2018-01-23T06:27:02.631Z,15.20
2018-01-23T06:29:28.874Z,20.85
2018-01-23T06:31:55.124Z,22.73
2018-01-23T06:34:21.411Z,13.35
2018-01-23T06:36:47.660Z,16.90
2018-01-23T06:39:13.967Z,21.17
2018-01-23T06:41:40.977Z,23.62
2018-01-23T06:44:07.991Z,17.15
2018-01-23T06:46:34.232Z,23.92
2018-01-23T06:49:01.432Z,19.48
2018-01-23T06:51:28.472Z,13.55
2018-01-23T06:53:54.832Z,15.85
2018-01-23T06:56:22.150Z,18.17
2018-01-23T06:58:48.475Z,17.08
2018-01-23T07:01:21.475Z,26.30
2018-01-23T07:03:47.763Z,22.02
2018-01-23T07:06:14.029Z,22.35
2018-01-23T07:08:41.030Z,17.58
2018-01-23T07:11:07.280Z,23.25
2018-01-23T07:13:41.345Z,24.45
2018-01-23T07:16:07.797Z,24.42
2018-01-23T07:18:34.785Z,20.75
2018-01-23T07:21:02.012Z,18.70
2018-01-23T07:23:28.471Z,19.17
2018-01-23T07:25:55.422Z,16.58
2018-01-23T07:28:22.415Z,16.40
2018-01-23T07:30:48.680Z,28.95
2018-01-23T07:33:14.934Z,17.48
2018-01-23T07:35:41.887Z,27.25
2018-01-23T07:38:08.156Z,15.52
2018-01-23T07:40:35.160Z,23.77
2018-01-23T07:43:02.367Z,22.23
2018-01-23T07:45:28.606Z,18.85
2018-01-23T07:47:54.844Z,22.10
2018-01-23T07:50:21.093Z,25.62
2018-01-23T07:52:47.332Z,19.00
2018-01-23T07:55:13.586Z,24.85
2018-01-23T07:57:40.557Z,29.55
2018-01-23T08:00:06.800Z,25.65
2018-01-23T08:02:33.057Z,17.37
2018-01-23T08:04:59.315Z,19.62
2018-01-23T08:07:25.583Z,20.95
2018-01-23T08:09:52.688Z,17.15
2018-01-23T08:12:18.950Z,19.23
2018-01-23T08:14:45.240Z,21.55
2018-01-23T08:17:12.349Z,19.58
2018-01-23T08:19:39.511Z,24.08
2018-01-23T08:22:05.750Z,17.12
2018-01-23T08:24:32.595Z,22.52
2018-01-23T08:26:58.829Z,16.48
2018-01-23T08:29:25.119Z,16.67
2018-01-23T08:31:52.337Z,22.13
2018-01-23T08:34:19.318Z,25.20
2018-01-23T08:36:45.562Z,18.15
2018-01-23T08:39:12.865Z,22.77
2018-01-23T08:41:39.289Z,17.12
2018-01-23T08:44:05.523Z,16.92
2018-01-23T08:46:33.750Z,19.33
2018-01-23T08:49:00.214Z,19.62
2018-01-23T08:51:27.225Z,18.30
2018-01-23T08:53:54.531Z,15.40
2018-01-23T08:56:20.937Z,18.45
2018-01-23T08:58:47.220Z,17.60
2018-01-23T09:01:14.189Z,23.30
2018-01-23T09:03:40.461Z,21.83
2018-01-23T09:06:06.704Z,22.62
2018-01-23T09:08:32.940Z,21.33
2018-01-23T09:10:59.217Z,17.12
2018-01-23T09:13:25.468Z,20.25
2018-01-23T09:15:53.140Z,28.52
2018-01-23T09:18:20.172Z,23.42
2018-01-23T09:20:46.468Z,17.02
2018-01-23T09:23:14.583Z,16.85
2018-01-23T09:25:40.813Z,19.33
2018-01-23T09:28:07.083Z,14.90
2018-01-23T09:30:34.414Z,22.20
2018-01-23T09:33:00.719Z,17.87
2018-01-23T09:35:27.753Z,18.10
2018-01-23T09:37:55.234Z,15.90
2018-01-23T09:40:21.492Z,13.98
2018-01-23T09:42:48.481Z,18.80
2018-01-23T09:45:14.773Z,20.20
2018-01-23T09:47:41.044Z,19.58
2018-01-23T09:50:08.014Z,20.17
2018-01-23T09:52:35.317Z,20.30
2018-01-23T09:55:01.736Z,21.60
2018-01-23T09:57:28.003Z,23.08
2018-01-23T09:59:54.271Z,19.70
2018-01-23T10:02:20.496Z,25.92
2018-01-23T10:04:46.736Z,13.90
2018-01-23T10:07:12.978Z,19.48
2018-01-23T10:09:39.248Z,17.35
2018-01-23T10:12:06.255Z,26.60
2018-01-23T10:14:32.494Z,17.52
2018-01-23T10:16:58.742Z,23.98
2018-01-23T10:19:25.004Z,17.95
2018-01-23T10:21:51.288Z,23.55
2018-01-23T10:24:17.589Z,19.58
2018-01-23T10:26:50.758Z,14.05
2018-01-23T10:29:17.077Z,20.80
2018-01-23T10:31:43.348Z,32.22
2018-01-23T10:34:09.596Z,17.90
2018-01-23T10:36:36.027Z,25.55
2018-01-23T10:39:02.397Z,20.23
2018-01-23T10:41:28.671Z,23.08
2018-01-23T10:43:55.683Z,22.73
2018-01-23T10:46:21.942Z,15.90
2018-01-23T10:48:48.220Z,13.68
2018-01-23T10:51:14.507Z,12.57
2018-01-23T10:53:40.762Z,17.40
2018-01-23T10:56:07.032Z,15.18
2018-01-23T10:58:34.043Z,13.57
2018-01-23T11:01:05.167Z,10.00
2018-01-23T11:03:31.433Z,12.65
2018-01-23T11:05:57.699Z,16.30
2018-01-23T11:08:23.963Z,11.25
2018-01-23T11:10:50.255Z,125.22
2018-01-23T11:13:16.502Z,220.02
2018-01-23T11:15:42.754Z,433.10
2018-01-23T11:18:09.043Z,274.55
2018-01-23T11:20:36.038Z,29.87
2018-01-23T11:23:02.314Z,16.48
2018-01-23T11:25:28.573Z,16.75
2018-01-23T11:27:55.547Z,12.63
2018-01-23T11:30:21.767Z,23.12
2018-01-23T11:32:48.756Z,14.77
2018-01-23T11:35:15.029Z,11.50
2018-01-23T11:37:41.293Z,12.73
2018-01-23T11:40:07.521Z,13.23
2018-01-23T11:42:33.746Z,13.35
2018-01-23T11:44:59.973Z,14.40
2018-01-23T11:47:27.288Z,10.80
2018-01-23T11:49:53.539Z,12.02
2018-01-23T11:52:20.543Z,14.90
2018-01-23T11:54:46.773Z,10.27
2018-01-23T11:57:13.003Z,13.55
2018-01-23T11:59:39.265Z,15.73
2018-01-23T12:02:05.523Z,12.18
2018-01-23T12:04:31.750Z,17.52
2018-01-23T12:06:57.996Z,13.82
2018-01-23T12:09:24.259Z,33.05
2018-01-23T12:11:50.475Z,73.60
2018-01-23T12:14:16.724Z,44.38
2018-01-23T12:16:42.990Z,19.83
2018-01-23T12:19:09.251Z,30.12
2018-01-23T12:21:36.245Z,10.57
2018-01-23T12:24:02.525Z,7.57
2018-01-23T12:26:28.802Z,9.85
2018-01-23T12:28:55.050Z,7.60
2018-01-23T12:31:21.306Z,10.40
2018-01-23T12:33:47.558Z,8.48
2018-01-23T12:36:13.850Z,8.48
2018-01-23T12:38:40.885Z,12.48
2018-01-23T12:41:07.159Z,8.68
2018-01-23T12:43:34.193Z,8.88
2018-01-23T12:46:00.552Z,14.87
2018-01-23T12:48:27.547Z,6.93
2018-01-23T12:50:53.838Z,5.30
2018-01-23T12:53:20.095Z,15.98
2018-01-23T12:55:47.108Z,14.73
2018-01-23T12:58:13.401Z,12.20
2018-01-23T13:00:39.681Z,10.38
2018-01-23T13:03:05.926Z,10.07
2018-01-23T13:05:32.158Z,13.93
2018-01-23T13:07:58.419Z,24.83
2018-01-23T13:10:24.662Z,15.80
2018-01-23T13:12:50.953Z,9.95
2018-01-23T13:15:17.958Z,12.63
2018-01-23T13:17:44.222Z,22.83
2018-01-23T13:20:10.474Z,12.85
2018-01-23T13:22:36.715Z,13.30
2018-01-23T13:25:03.720Z,7.25
2018-01-23T13:27:29.957Z,14.32
2018-01-23T13:29:56.222Z,5.53
2018-01-23T13:32:22.452Z,11.68
2018-01-23T13:34:48.683Z,7.75
2018-01-23T13:37:14.961Z,19.52
2018-01-23T13:39:41.221Z,13.25
2018-01-23T13:42:07.517Z,8.73
2018-01-23T13:44:33.783Z,9.40
2018-01-23T13:47:00.051Z,8.85
2018-01-23T13:49:27.023Z,6.45
2018-01-23T13:51:53.292Z,11.15
2018-01-23T13:54:19.559Z,17.50
2018-01-23T13:56:45.829Z,8.65
2018-01-23T13:59:12.859Z,7.60
2018-01-23T14:01:39.111Z,4.07
2018-01-23T14:04:05.408Z,11.27
2018-01-23T14:06:31.636Z,7.35
2018-01-23T14:08:57.874Z,8.30
2018-01-23T14:11:24.134Z,16.10
2018-01-23T14:13:50.381Z,10.77
2018-01-23T14:16:16.744Z,8.65
2018-01-23T14:18:43.806Z,14.60
2018-01-23T14:21:10.942Z,13.88
2018-01-23T14:23:37.349Z,12.05
2018-01-23T14:26:04.331Z,9.65
2018-01-23T14:28:30.580Z,9.95
2018-01-23T14:30:56.826Z,7.55
2018-01-23T14:33:23.096Z,14.00
2018-01-23T14:35:49.341Z,11.68
2018-01-23T14:38:15.570Z,11.73
2018-01-23T14:40:41.837Z,9.25
2018-01-23T14:43:08.091Z,9.85
2018-01-23T14:45:35.093Z,13.52
2018-01-23T14:48:01.374Z,9.73
2018-01-23T14:50:27.613Z,14.20
2018-01-23T14:52:53.917Z,11.57
2018-01-23T14:55:20.149Z,13.27
2018-01-23T14:57:46.427Z,13.38
2018-01-23T15:00:13.470Z,9.43
2018-01-23T15:02:39.755Z,9.05
2018-01-23T15:05:06.806Z,11.80
2018-01-23T15:07:33.076Z,9.52
2018-01-23T15:09:59.343Z,10.30
2018-01-23T15:12:25.600Z,20.12
2018-01-23T15:14:51.844Z,9.05
2018-01-23T15:17:18.090Z,12.18
2018-01-23T15:19:44.323Z,12.65
2018-01-23T15:22:10.609Z,12.68
2018-01-23T15:24:36.882Z,14.95
2018-01-23T15:27:03.125Z,12.32
2018-01-23T15:29:29.400Z,12.57
2018-01-23T15:31:55.737Z,10.40
2018-01-23T15:34:22.003Z,8.27
2018-01-23T15:36:48.982Z,17.00
2018-01-23T15:39:15.277Z,11.45
2018-01-23T15:41:41.552Z,12.52
2018-01-23T15:44:08.527Z,15.32
2018-01-23T15:46:34.790Z,8.82
2018-01-23T15:49:01.023Z,11.02
2018-01-23T15:51:27.289Z,11.43
2018-01-23T15:53:53.609Z,9.63
2018-01-23T15:56:19.867Z,12.90
2018-01-23T15:58:46.142Z,16.12
2018-01-23T16:01:12.406Z,18.05
2018-01-23T16:03:38.663Z,16.85
2018-01-23T16:06:04.943Z,21.17
2018-01-23T16:08:31.217Z,14.65
2018-01-23T16:10:57.480Z,23.98
2018-01-23T16:13:23.787Z,19.75
2018-01-23T16:15:50.001Z,14.45
2018-01-23T16:18:16.277Z,11.35
2018-01-23T16:20:42.521Z,11.60
2018-01-23T16:23:09.500Z,10.98
2018-01-23T16:25:35.747Z,12.05
2018-01-23T16:28:02.013Z,16.15
2018-01-23T16:30:28.263Z,25.83
2018-01-23T16:32:54.556Z,32.03
2018-01-23T16:35:21.531Z,20.67
2018-01-23T16:37:47.798Z,17.85
2018-01-23T16:40:14.042Z,11.40
2018-01-23T16:42:40.297Z,13.52
2018-01-23T16:45:06.596Z,15.25
2018-01-23T16:47:32.866Z,14.32
2018-01-23T16:49:59.120Z,13.60
2018-01-23T16:52:25.376Z,16.62
2018-01-23T16:54:51.653Z,7.57
2018-01-23T16:57:17.935Z,10.18
2018-01-23T16:59:44.256Z,4.25
2018-01-23T17:02:10.566Z,9.52
2018-01-23T17:04:37.595Z,9.73
2018-01-23T17:07:03.901Z,9.85
2018-01-23T17:09:30.212Z,10.77
2018-01-23T17:11:56.516Z,9.75
2018-01-23T17:14:22.814Z,7.72
2018-01-23T17:16:49.117Z,12.32
2018-01-23T17:19:15.709Z,14.75
2018-01-23T17:21:41.986Z,9.48
2018-01-23T17:24:08.273Z,25.05
2018-01-23T17:26:34.635Z,22.95
2018-01-23T17:29:00.887Z,18.85
2018-01-23T17:31:27.210Z,24.80
2018-01-23T17:33:53.512Z,25.88
2018-01-23T17:36:19.830Z,19.85
2018-01-23T17:38:46.057Z,25.98
2018-01-23T17:41:12.300Z,34.80
2018-01-23T17:43:39.643Z,23.60
2018-01-23T17:46:05.941Z,18.02
2018-01-23T17:48:33.002Z,18.17
2018-01-23T17:50:59.277Z,11.63
2018-01-23T17:53:25.546Z,10.43
2018-01-23T17:55:51.825Z,6.97
2018-01-23T17:58:24.952Z,8.02
2018-01-23T18:00:51.304Z,10.07
2018-01-23T18:03:17.615Z,12.57
2018-01-23T18:05:43.967Z,14.52
2018-01-23T18:08:10.307Z,7.45
2018-01-23T18:10:36.628Z,7.70
2018-01-23T18:13:02.953Z,9.73
2018-01-23T18:15:29.290Z,12.55
2018-01-23T18:17:55.579Z,20.00
2018-01-23T18:20:22.647Z,29.40
2018-01-23T18:22:48.982Z,32.75
2018-01-23T18:25:15.297Z,33.65
2018-01-23T18:27:41.625Z,33.45
2018-01-23T18:30:07.959Z,26.58
2018-01-23T18:32:34.297Z,24.50
2018-01-23T18:35:00.675Z,23.65
2018-01-23T18:37:27.019Z,19.52
2018-01-23T18:39:53.357Z,20.00
2018-01-23T18:42:19.696Z,22.50
2018-01-23T18:44:46.069Z,31.15
2018-01-23T18:47:12.379Z,29.85
2018-01-23T18:49:38.745Z,47.65
2018-01-23T18:52:05.011Z,48.45
2018-01-23T18:54:31.309Z,63.40
2018-01-23T18:56:57.666Z,68.72
2018-01-23T18:59:24.749Z,46.85
2018-01-23T19:01:51.163Z,51.63
2018-01-23T19:04:17.525Z,38.20
2018-01-23T19:06:43.876Z,47.60
2018-01-23T19:09:10.238Z,43.83
2018-01-23T19:11:36.592Z,45.17
2018-01-23T19:14:02.950Z,33.67
2018-01-23T19:16:29.393Z,35.65
2018-01-23T19:18:55.712Z,36.42
2018-01-23T19:21:22.062Z,30.83
2018-01-23T19:23:48.426Z,33.13
2018-01-23T19:26:14.803Z,23.67
2018-01-23T19:28:41.194Z,20.92
2018-01-23T19:31:07.586Z,18.08
2018-01-23T19:33:34.714Z,16.85
2018-01-23T19:36:01.114Z,23.87
2018-01-23T19:38:28.222Z,30.35
2018-01-23T19:40:54.592Z,30.83
2018-01-23T19:43:20.978Z,38.88
2018-01-23T19:45:47.398Z,42.53
2018-01-23T19:48:14.507Z,31.35
2018-01-23T19:50:40.892Z,33.17
2018-01-23T19:53:07.254Z,39.60
2018-01-23T19:55:34.397Z,35.10
2018-01-23T19:58:00.779Z,31.12
2018-01-23T20:00:27.201Z,36.85
2018-01-23T20:02:54.300Z,28.38
2018-01-23T20:05:20.699Z,33.35
2018-01-23T20:07:47.143Z,27.70
2018-01-23T20:10:13.662Z,43.38
2018-01-23T20:12:40.800Z,28.65
2018-01-23T20:15:07.227Z,25.75
2018-01-23T20:17:33.672Z,18.48
2018-01-23T20:20:00.059Z,16.80
2018-01-23T20:22:26.448Z,20.42
2018-01-23T20:24:53.520Z,17.62
2018-01-23T20:27:19.946Z,19.80
2018-01-23T20:29:46.341Z,29.73
2018-01-23T20:32:12.747Z,43.87
2018-01-23T20:34:39.125Z,36.95
2018-01-23T20:37:05.481Z,25.15
2018-01-23T20:39:31.906Z,35.85
2018-01-23T20:41:58.274Z,17.98
2018-01-23T20:44:24.627Z,31.20
2018-01-23T20:46:50.981Z,26.40
2018-01-23T20:49:17.324Z,31.35
2018-01-23T20:51:43.733Z,32.13
2018-01-23T20:54:10.062Z,30.62
2018-01-23T20:56:36.641Z,33.42
2018-01-23T20:59:02.996Z,29.30
2018-01-23T21:01:29.330Z,32.45
2018-01-23T21:03:55.705Z,66.57
2018-01-23T21:06:22.785Z,30.33
2018-01-23T21:08:49.195Z,35.17
2018-01-23T21:11:15.518Z,37.90
2018-01-23T21:13:41.813Z,29.20
2018-01-23T21:16:08.148Z,25.85
2018-01-23T21:18:34.478Z,16.92
2018-01-23T21:21:01.654Z,16.58
2018-01-23T21:23:27.970Z,28.08
2018-01-23T21:25:54.309Z,27.42
2018-01-23T21:28:20.696Z,20.27
2018-01-23T21:30:47.021Z,23.65
2018-01-23T21:33:14.085Z,27.17
2018-01-23T21:35:40.434Z,23.25
2018-01-23T21:38:06.750Z,26.20
2018-01-23T21:40:33.788Z,21.67
2018-01-23T21:43:00.078Z,23.73
2018-01-23T21:45:26.480Z,21.65
2018-01-23T21:47:52.763Z,25.33
2018-01-23T21:50:19.043Z,20.58
2018-01-23T21:52:45.355Z,24.12
2018-01-23T21:55:11.690Z,21.45
2018-01-23T21:57:38.018Z,17.33
2018-01-23T22:00:04.304Z,23.50
2018-01-23T22:02:30.840Z,22.85
2018-01-23T22:04:57.099Z,20.60
2018-01-23T22:07:23.318Z,29.42
2018-01-23T22:09:49.592Z,21.37
2018-01-23T22:12:15.858Z,16.23
2018-01-23T22:14:42.902Z,15.13
2018-01-23T22:17:09.140Z,9.93
2018-01-23T22:19:35.361Z,11.93
2018-01-23T22:22:01.635Z,12.25
2018-01-23T22:24:27.928Z,12.25
2018-01-23T22:26:54.164Z,13.07
2018-01-23T22:29:20.415Z,9.15
2018-01-23T22:31:46.666Z,10.05
2018-01-23T22:34:12.926Z,8.77
2018-01-23T22:36:39.194Z,15.45
2018-01-23T22:39:06.209Z,10.38
2018-01-23T22:41:32.459Z,7.82
2018-01-23T22:43:58.727Z,17.10
2018-01-23T22:46:24.973Z,8.30
2018-01-23T22:48:52.256Z,8.70
2018-01-23T22:51:18.552Z,13.88
2018-01-23T22:53:44.834Z,7.82
2018-01-23T22:56:11.102Z,11.50
2018-01-23T22:58:37.373Z,10.05
2018-01-23T23:01:03.672Z,8.70
2018-01-23T23:03:29.918Z,7.25
2018-01-23T23:05:56.196Z,8.07
2018-01-23T23:08:22.399Z,11.65
2018-01-23T23:10:48.664Z,17.40
2018-01-23T23:13:14.931Z,18.37
2018-01-23T23:15:41.164Z,13.88
2018-01-23T23:18:07.421Z,16.90
2018-01-23T23:20:34.394Z,17.10
2018-01-23T23:23:00.651Z,16.65
2018-01-23T23:25:26.879Z,14.38
2018-01-23T23:27:53.110Z,17.75
2018-01-23T23:30:19.382Z,24.75
2018-01-23T23:32:45.610Z,22.52
2018-01-23T23:35:11.847Z,20.00
2018-01-23T23:37:38.078Z,15.25
2018-01-23T23:40:04.376Z,18.10
2018-01-23T23:42:30.634Z,19.35
2018-01-23T23:44:56.962Z,20.80
2018-01-23T23:47:23.213Z,11.05
2018-01-23T23:49:49.440Z,13.80
2018-01-23T23:52:15.757Z,17.40
2018-01-23T23:54:41.980Z,12.37
2018-01-23T23:57:08.235Z,12.93
2018-01-23T23:59:34.476Z,12.40
